This is the latest recevied weather packets stored in our database for station/object KQ4DLB-13. If no packets are shown the sender has not sent any weather packets the latest 10 day(s).
| Time | Temp. | Humidity | Pressure | Rain* | Wind** | Luminosity | Snow |
|---|---|---|---|---|---|---|---|
| 1776975302 | 28.33° C | 40% | 989.6 hPa | 0 mm | - | 798 W/m² | - |
| 1776975002 | 28.33° C | 39% | 989.6 hPa | 0 mm | - | 701 W/m² | - |
| 1776974702 | 28.33° C | 39% | 989.7 hPa | 0 mm | - | 713 W/m² | - |
| 1776974402 | 27.78° C | 40% | 989.8 hPa | 0 mm | - | 843 W/m² | - |
| 1776974102 | 27.78° C | 40% | 989.9 hPa | 0 mm | - | 756 W/m² | - |
| 1776973803 | 27.22° C | 42% | 990 hPa | 0 mm | - | 930 W/m² | - |
| 1776973502 | 27.22° C | 42% | 990 hPa | 0 mm | - | 661 W/m² | - |
| 1776973203 | 27.22° C | 41% | 989.9 hPa | 0 mm | - | 160 W/m² | - |
| 1776972902 | 27.78° C | 40% | 990.2 hPa | 0 mm | - | 535 W/m² | - |
| 1776972603 | 27.78° C | 41% | 990.2 hPa | 0 mm | - | 706 W/m² | - |
| 1776972303 | 27.78° C | 40% | 990.3 hPa | 0 mm | - | 543 W/m² | - |
| 1776972002 | 27.78° C | 41% | 990.5 hPa | 0 mm | - | 925 W/m² | - |
| 1776971702 | 27.78° C | 41% | 990.5 hPa | 0 mm | - | 874 W/m² | - |
| 1776971402 | 27.22° C | 41% | 990.6 hPa | 0 mm | - | 964 W/m² | - |
| 1776971102 | 27.22° C | 41% | 990.6 hPa | 0 mm | - | 815 W/m² | - |
| 1776970802 | 27.22° C | 42% | 990.6 hPa | 0 mm | - | 569 W/m² | - |
| 1776970502 | 27.22° C | 42% | 990.7 hPa | 0 mm | - | 728 W/m² | - |
| 1776970203 | 27.22° C | 41% | 990.8 hPa | 0 mm | - | 984 W/m² | - |
| 1776969902 | 27.22° C | 43% | 990.9 hPa | 0 mm | - | 842 W/m² | - |
| 1776969602 | 26.67° C | 44% | 991 hPa | 0 mm | - | 991 W/m² | - |
| 1776969302 | 26.67° C | 45% | 990.9 hPa | 0 mm | - | 759 W/m² | - |
| 1776969002 | 26.67° C | 43% | 991 hPa | 0 mm | - | 642 W/m² | - |
| 1776968702 | 26.11° C | 46% | 991.2 hPa | 0 mm | - | 996 W/m² | - |
| 1776968402 | 25.56° C | 47% | 991.2 hPa | 0 mm | - | 814 W/m² | - |
| 1776968102 | 25.56° C | 47% | 991.1 hPa | 0 mm | - | 332 W/m² | - |
* Rain latest hour (hover to see other rain measurements)
** Current wind speed in m/s (hover to see current wind gust speed)